Anson, Texas
Current Conditions -  °F | °C
As of 5:08 PM on Wednesday 17 Dec 2014 (Local Time) from KDYS Reporting Station
Overcast Overcast  
Wind Chill: 52°   Ceiling: 1600
Heat Index: 52°   Visibility: 10mi
Dew Point: 43°   Wind: 7mph
Humidity: 71%   Direction: 190°S
Pressure: 30.02"   Gusts: NA
Location:  32.76°N, 99.9°W
Report Text: KDYS 172308Z AUTO 19006KT 10SM OVC016 11/06 A3002 RMK AO2
Loading
Personal Weather Stations






























Interactive Weather Map New forecast layout! Learn more

10-Day Weather Forecast

Advertisements
Track Severe Weather on mobile